createdAt,value
2019-04-06T00:00:42.077Z,989.78
2019-04-06T00:01:42.097Z,989.81
2019-04-06T00:02:42.121Z,989.77
2019-04-06T00:03:42.140Z,989.77
2019-04-06T00:04:42.162Z,989.78
2019-04-06T00:05:42.187Z,989.8
2019-04-06T00:06:42.208Z,989.79
2019-04-06T00:07:42.229Z,989.8
2019-04-06T00:08:42.248Z,989.75
2019-04-06T00:09:42.271Z,989.84
2019-04-06T00:10:42.292Z,989.85
2019-04-06T00:11:42.314Z,989.81
2019-04-06T00:12:42.335Z,989.8
2019-04-06T00:13:42.356Z,989.8
2019-04-06T00:14:42.377Z,989.84
2019-04-06T00:15:42.401Z,989.81
2019-04-06T00:16:42.422Z,989.82
2019-04-06T00:17:42.446Z,989.8
2019-04-06T00:18:42.465Z,989.79
2019-04-06T00:19:42.486Z,989.8
2019-04-06T00:20:42.508Z,989.79
2019-04-06T00:21:42.531Z,989.79
2019-04-06T00:22:42.551Z,989.79
2019-04-06T00:23:42.571Z,989.79
2019-04-06T00:24:42.594Z,989.82
2019-04-06T00:25:44.503Z,989.78
2019-04-06T00:26:42.636Z,989.74
2019-04-06T00:27:42.659Z,989.77
2019-04-06T00:28:42.680Z,989.77
2019-04-06T00:29:42.703Z,989.75
2019-04-06T00:30:42.724Z,989.72
2019-04-06T00:31:42.742Z,989.74
2019-04-06T00:32:42.765Z,989.73
2019-04-06T00:33:42.787Z,989.77
2019-04-06T00:34:42.810Z,989.73
2019-04-06T00:35:42.828Z,989.74
2019-04-06T00:36:42.851Z,989.7
2019-04-06T00:37:42.870Z,989.73
2019-04-06T00:38:42.893Z,989.72
2019-04-06T00:39:42.915Z,989.71
2019-04-06T00:40:42.936Z,989.74
2019-04-06T00:41:42.957Z,989.74
2019-04-06T00:42:42.980Z,989.72
2019-04-06T00:43:42.999Z,989.72
2019-04-06T00:44:43.023Z,989.74
2019-04-06T00:45:43.044Z,989.73
2019-04-06T00:46:43.065Z,989.7
2019-04-06T00:47:43.084Z,989.74
2019-04-06T00:48:43.108Z,989.74
2019-04-06T00:49:43.131Z,989.74
2019-04-06T00:50:43.149Z,989.68
2019-04-06T00:51:43.170Z,989.72
2019-04-06T00:52:43.190Z,989.67
2019-04-06T00:53:43.213Z,989.71
2019-04-06T00:54:43.234Z,989.68
2019-04-06T00:55:43.254Z,989.69
2019-04-06T00:56:43.276Z,989.73
2019-04-06T00:57:43.296Z,989.7
2019-04-06T00:58:43.320Z,989.68
2019-04-06T00:59:43.340Z,989.66
2019-04-06T01:00:43.361Z,989.62
2019-04-06T01:01:43.385Z,989.63
2019-04-06T01:02:43.403Z,989.62
2019-04-06T01:03:43.423Z,989.61
2019-04-06T01:04:43.446Z,989.6
2019-04-06T01:05:43.466Z,989.6
2019-04-06T01:06:43.486Z,989.61
2019-04-06T01:07:43.511Z,989.58
2019-04-06T01:08:43.537Z,989.58
2019-04-06T01:09:43.571Z,989.55
2019-04-06T01:10:43.572Z,989.64
2019-04-06T01:11:43.639Z,989.66
2019-04-06T01:12:43.614Z,989.61
2019-04-06T01:13:43.636Z,989.61
2019-04-06T01:14:43.655Z,989.61
2019-04-06T01:15:43.677Z,989.58
2019-04-06T01:16:43.697Z,989.57
2019-04-06T01:17:43.721Z,989.59
2019-04-06T01:18:43.740Z,989.55
2019-04-06T01:19:43.760Z,989.6
2019-04-06T01:20:43.781Z,989.59
2019-04-06T01:21:43.802Z,989.6
2019-04-06T01:22:43.824Z,989.59
2019-04-06T01:23:43.844Z,989.56
2019-04-06T01:24:43.865Z,989.62
2019-04-06T01:25:43.886Z,989.63
2019-04-06T01:26:43.907Z,989.6
2019-04-06T01:27:43.928Z,989.58
2019-04-06T01:28:43.949Z,989.57
2019-04-06T01:29:43.969Z,989.55
2019-04-06T01:30:43.990Z,989.55
2019-04-06T01:31:44.011Z,989.59
2019-04-06T01:32:44.032Z,989.58
2019-04-06T01:33:44.053Z,989.56
2019-04-06T01:34:44.163Z,989.6
2019-04-06T01:35:44.094Z,989.54
2019-04-06T01:36:44.116Z,989.58
2019-04-06T01:37:44.137Z,989.52
2019-04-06T01:38:44.156Z,989.55
2019-04-06T01:39:44.179Z,989.55
2019-04-06T01:40:44.198Z,989.58
2019-04-06T01:41:44.220Z,989.54
2019-04-06T01:42:44.240Z,989.56
2019-04-06T01:43:44.260Z,989.55
2019-04-06T01:44:44.483Z,989.57
2019-04-06T01:45:44.303Z,989.55
2019-04-06T01:46:44.323Z,989.56
2019-04-06T01:47:44.393Z,989.58
2019-04-06T01:48:44.366Z,989.55
2019-04-06T01:49:44.386Z,989.55
2019-04-06T01:50:44.406Z,989.6
2019-04-06T01:51:44.428Z,989.58
2019-04-06T01:52:44.448Z,989.55
2019-04-06T01:53:44.468Z,989.58
2019-04-06T01:54:44.511Z,989.55
2019-04-06T01:55:44.514Z,989.58
2019-04-06T01:56:44.532Z,989.58
2019-04-06T01:57:44.553Z,989.57
2019-04-06T01:58:44.576Z,989.55
2019-04-06T01:59:44.594Z,989.54
2019-04-06T02:00:44.613Z,989.55
2019-04-06T02:01:44.634Z,989.54
2019-04-06T02:02:44.657Z,989.56
2019-04-06T02:03:44.677Z,989.59
2019-04-06T02:04:44.698Z,989.63
2019-04-06T02:05:44.719Z,989.61
2019-04-06T02:06:44.737Z,989.65
2019-04-06T02:07:44.894Z,989.64
2019-04-06T02:08:44.781Z,989.64
2019-04-06T02:09:44.801Z,989.62
2019-04-06T02:10:44.842Z,989.62
2019-04-06T02:11:44.841Z,989.59
2019-04-06T02:12:44.862Z,989.6
2019-04-06T02:13:44.925Z,989.64
2019-04-06T02:14:44.950Z,989.62
2019-04-06T02:15:44.923Z,989.63
2019-04-06T02:16:44.947Z,989.68
2019-04-06T02:17:44.965Z,989.66
2019-04-06T02:18:44.987Z,989.69
2019-04-06T02:19:45.009Z,989.71
2019-04-06T02:20:45.027Z,989.7
2019-04-06T02:21:45.050Z,989.74
2019-04-06T02:22:45.069Z,989.7
2019-04-06T02:23:45.091Z,989.73
2019-04-06T02:24:45.110Z,989.71
2019-04-06T02:25:45.131Z,989.7
2019-04-06T02:26:45.151Z,989.71
2019-04-06T02:27:45.172Z,989.7
2019-04-06T02:28:45.194Z,989.7
2019-04-06T02:29:45.215Z,989.7
2019-04-06T02:30:45.300Z,989.69
2019-04-06T02:31:45.411Z,989.67
2019-04-06T02:32:45.275Z,989.65
2019-04-06T02:33:45.295Z,989.68
2019-04-06T02:34:45.318Z,989.64
2019-04-06T02:35:45.398Z,989.68
2019-04-06T02:36:45.358Z,989.72
2019-04-06T02:37:45.423Z,989.73
2019-04-06T02:38:45.397Z,989.69
2019-04-06T02:39:45.449Z,989.7
2019-04-06T02:40:45.482Z,989.71
2019-04-06T02:41:45.459Z,989.72
2019-04-06T02:42:45.480Z,989.7
2019-04-06T02:43:45.507Z,989.74
2019-04-06T02:44:45.520Z,989.76
2019-04-06T02:45:45.544Z,989.77
2019-04-06T02:46:45.570Z,989.76
2019-04-06T02:47:45.582Z,989.73
2019-04-06T02:48:45.602Z,989.69
2019-04-06T02:49:45.623Z,989.71
2019-04-06T02:50:45.650Z,989.73
2019-04-06T02:51:45.662Z,989.72
2019-04-06T02:52:45.683Z,989.78
2019-04-06T02:53:45.706Z,989.73
2019-04-06T02:54:45.724Z,989.77
2019-04-06T02:55:45.745Z,989.76
2019-04-06T02:56:47.536Z,989.71
2019-04-06T02:57:45.785Z,989.74
2019-04-06T02:58:45.849Z,989.69
2019-04-06T02:59:45.832Z,989.72
2019-04-06T03:00:45.850Z,989.75
2019-04-06T03:01:45.869Z,989.74
2019-04-06T03:02:45.886Z,989.75
2019-04-06T03:03:45.912Z,989.76
2019-04-06T03:04:45.929Z,989.75
2019-04-06T03:05:45.952Z,989.77
2019-04-06T03:06:45.967Z,989.71
2019-04-06T03:07:45.987Z,989.7
2019-04-06T03:08:46.011Z,989.76
2019-04-06T03:09:46.031Z,989.72
2019-04-06T03:10:46.050Z,989.72
2019-04-06T03:11:46.070Z,989.72
2019-04-06T03:12:46.092Z,989.7
2019-04-06T03:13:46.126Z,989.71
2019-04-06T03:14:46.142Z,989.66
2019-04-06T03:15:46.150Z,989.66
2019-04-06T03:16:46.224Z,989.7
2019-04-06T03:17:46.191Z,989.7
2019-04-06T03:18:46.212Z,989.67
2019-04-06T03:19:46.232Z,989.67
2019-04-06T03:20:46.259Z,989.68
2019-04-06T03:21:46.274Z,989.69
2019-04-06T03:22:46.330Z,989.67
2019-04-06T03:23:50.953Z,989.7
2019-04-06T03:24:46.333Z,989.66
2019-04-06T03:25:46.353Z,989.69
2019-04-06T03:26:59.661Z,989.68
2019-04-06T03:27:46.405Z,989.69
2019-04-06T03:28:46.426Z,989.71
2019-04-06T03:29:57.112Z,989.68
2019-04-06T03:30:46.617Z,989.67
2019-04-06T03:31:46.478Z,989.64
2019-04-06T03:32:46.723Z,989.68
2019-04-06T03:33:46.515Z,989.69
2019-04-06T03:34:46.650Z,989.66
2019-04-06T03:35:49.317Z,989.65
2019-04-06T03:36:46.577Z,989.66
2019-04-06T03:37:46.598Z,989.67
2019-04-06T03:38:46.616Z,989.66
2019-04-06T03:39:46.638Z,989.64
2019-04-06T03:40:46.756Z,989.64
2019-04-06T03:41:46.676Z,989.68
2019-04-06T03:42:46.698Z,989.64
2019-04-06T03:43:46.717Z,989.62
2019-04-06T03:44:46.736Z,989.65
2019-04-06T03:45:46.905Z,989.66
2019-04-06T03:46:46.779Z,989.63
2019-04-06T03:47:46.798Z,989.65
2019-04-06T03:48:46.818Z,989.59
2019-04-06T03:49:46.839Z,989.56
2019-04-06T03:50:46.859Z,989.54
2019-04-06T03:51:46.879Z,989.52
2019-04-06T03:52:46.907Z,989.61
2019-04-06T03:53:46.919Z,989.56
2019-04-06T03:54:46.942Z,989.56
2019-04-06T03:55:46.961Z,989.53
2019-04-06T03:56:46.981Z,989.53
2019-04-06T03:57:47.006Z,989.54
2019-04-06T03:58:47.022Z,989.54
2019-04-06T03:59:47.048Z,989.53
2019-04-06T04:00:47.064Z,989.54
2019-04-06T04:01:47.082Z,989.55
2019-04-06T04:02:47.232Z,989.54
2019-04-06T04:03:47.122Z,989.53
2019-04-06T04:04:47.148Z,989.52
2019-04-06T04:05:47.217Z,989.49
2019-04-06T04:06:47.182Z,989.52
2019-04-06T04:07:47.202Z,989.53
2019-04-06T04:08:47.415Z,989.45
2019-04-06T04:09:47.242Z,989.46
2019-04-06T04:10:47.988Z,989.47
2019-04-06T04:11:47.288Z,989.45
2019-04-06T04:12:47.302Z,989.42
2019-04-06T04:13:47.325Z,989.47
2019-04-06T04:14:47.342Z,989.46
2019-04-06T04:15:47.613Z,989.5
2019-04-06T04:16:47.382Z,989.47
2019-04-06T04:17:47.404Z,989.51
2019-04-06T04:18:47.423Z,989.5
2019-04-06T04:19:47.588Z,989.46
2019-04-06T04:20:47.463Z,989.43
2019-04-06T04:21:47.483Z,989.46
2019-04-06T04:22:47.507Z,989.43
2019-04-06T04:23:47.533Z,989.43
2019-04-06T04:24:47.542Z,989.47
2019-04-06T04:25:47.563Z,989.46
2019-04-06T04:26:47.586Z,989.45
2019-04-06T04:27:47.604Z,989.45
2019-04-06T04:28:47.623Z,989.48
2019-04-06T04:29:47.649Z,989.49
2019-04-06T04:30:47.665Z,989.46
2019-04-06T04:31:47.681Z,989.49
2019-04-06T04:32:47.719Z,989.47
2019-04-06T04:33:47.723Z,989.45
2019-04-06T04:34:47.758Z,989.46
2019-04-06T04:35:47.789Z,989.53
2019-04-06T04:36:47.784Z,989.48
2019-04-06T04:37:47.800Z,989.45
2019-04-06T04:38:47.822Z,989.45
2019-04-06T04:39:48.016Z,989.5
2019-04-06T04:40:47.862Z,989.49
2019-04-06T04:41:48.373Z,989.47
2019-04-06T04:42:47.901Z,989.53
2019-04-06T04:43:47.922Z,989.46
2019-04-06T04:44:47.941Z,989.48
2019-04-06T04:45:47.962Z,989.49
2019-04-06T04:46:47.985Z,989.51
2019-04-06T04:47:50.105Z,989.5
2019-04-06T04:48:48.022Z,989.49
2019-04-06T04:49:48.089Z,989.5
2019-04-06T04:50:48.062Z,989.54
2019-04-06T04:51:48.081Z,989.55
2019-04-06T04:52:48.101Z,989.56
2019-04-06T04:53:48.120Z,989.57
2019-04-06T04:54:48.142Z,989.6
2019-04-06T04:55:48.160Z,989.63
2019-04-06T04:56:48.355Z,989.61
2019-04-06T04:57:48.202Z,989.58
2019-04-06T04:58:48.226Z,989.6
2019-04-06T04:59:48.241Z,989.57
2019-04-06T05:00:48.265Z,989.6
2019-04-06T05:01:48.283Z,989.59
2019-04-06T05:02:48.300Z,989.65
2019-04-06T05:03:48.319Z,989.6
2019-04-06T05:04:48.428Z,989.63
2019-04-06T05:05:48.360Z,989.66
2019-04-06T05:06:48.400Z,989.65
2019-04-06T05:07:48.400Z,989.67
2019-04-06T05:08:48.441Z,989.68
2019-04-06T05:09:48.441Z,989.68
2019-04-06T05:10:48.459Z,989.64
2019-04-06T05:11:49.088Z,989.66
2019-04-06T05:12:48.499Z,989.68
2019-04-06T05:13:48.519Z,989.68
2019-04-06T05:14:48.549Z,989.7
2019-04-06T05:15:48.560Z,989.72
2019-04-06T05:16:48.628Z,989.7
2019-04-06T05:17:48.600Z,989.73
2019-04-06T05:18:48.620Z,989.77
2019-04-06T05:19:48.638Z,989.76
2019-04-06T05:20:48.663Z,989.78
2019-04-06T05:21:48.677Z,989.81
2019-04-06T05:22:48.698Z,989.79
2019-04-06T05:23:48.720Z,989.81
2019-04-06T05:24:48.741Z,989.77
2019-04-06T05:25:48.760Z,989.83
2019-04-06T05:26:48.777Z,989.81
2019-04-06T05:27:52.159Z,989.79
2019-04-06T05:28:48.818Z,989.78
2019-04-06T05:29:48.841Z,989.78
2019-04-06T05:30:49.053Z,989.81
2019-04-06T05:31:48.880Z,989.85
2019-04-06T05:32:48.898Z,989.82
2019-04-06T05:33:48.922Z,989.84
2019-04-06T05:34:49.105Z,989.86
2019-04-06T05:35:48.957Z,989.83
2019-04-06T05:36:48.978Z,989.88
2019-04-06T05:37:49.045Z,989.89
2019-04-06T05:38:49.018Z,989.91
2019-04-06T05:39:49.036Z,989.9
2019-04-06T05:40:49.056Z,989.91
2019-04-06T05:41:50.483Z,989.9
2019-04-06T05:42:49.097Z,989.93
2019-04-06T05:43:49.118Z,989.91
2019-04-06T05:44:49.294Z,989.92
2019-04-06T05:45:49.157Z,989.94
2019-04-06T05:46:49.176Z,989.94
2019-04-06T05:47:49.198Z,989.97
2019-04-06T05:48:49.219Z,989.97
2019-04-06T05:49:49.237Z,989.97
2019-04-06T05:50:49.421Z,989.95
2019-04-06T05:51:49.478Z,989.93
2019-04-06T05:52:49.296Z,989.99
2019-04-06T05:53:49.317Z,989.98
2019-04-06T05:54:49.336Z,989.99
2019-04-06T05:55:49.406Z,990.03
2019-04-06T05:56:49.432Z,990.04
2019-04-06T05:57:49.397Z,990.03
2019-04-06T05:58:49.415Z,990.01
2019-04-06T05:59:49.436Z,989.99
2019-04-06T06:00:49.458Z,990.02
2019-04-06T06:01:49.476Z,990.04
2019-04-06T06:02:49.652Z,990.06
2019-04-06T06:03:49.517Z,990.04
2019-04-06T06:04:49.541Z,990.05
2019-04-06T06:05:49.576Z,990.04
2019-04-06T06:06:49.574Z,990.01
2019-04-06T06:07:49.596Z,990.01
2019-04-06T06:08:49.760Z,990.03
2019-04-06T06:09:49.637Z,990.01
2019-04-06T06:10:49.772Z,990.03
2019-04-06T06:11:49.679Z,990.02
2019-04-06T06:12:49.822Z,989.99
2019-04-06T06:13:49.714Z,990.03
2019-04-06T06:14:49.734Z,990.04
2019-04-06T06:15:49.756Z,990.02
2019-04-06T06:16:50.149Z,990.04
2019-04-06T06:17:49.795Z,990.02
2019-04-06T06:18:49.964Z,989.99
2019-04-06T06:19:49.890Z,990
2019-04-06T06:20:49.984Z,990
2019-04-06T06:21:49.874Z,990.03
2019-04-06T06:22:50.046Z,990.08
2019-04-06T06:23:49.914Z,990.09
2019-04-06T06:24:49.934Z,990.07
2019-04-06T06:25:49.952Z,990.1
2019-04-06T06:26:50.200Z,990.13
2019-04-06T06:27:49.995Z,990.11
2019-04-06T06:28:50.017Z,990.09
2019-04-06T06:29:50.034Z,990.05
2019-04-06T06:30:50.053Z,990.12
2019-04-06T06:31:50.074Z,990.08
2019-04-06T06:32:50.272Z,990.15
2019-04-06T06:33:50.112Z,990.11
2019-04-06T06:34:50.132Z,990.15
2019-04-06T06:35:50.151Z,990.17
2019-04-06T06:36:50.172Z,990.16
2019-04-06T06:37:50.192Z,990.11
2019-04-06T06:38:50.213Z,990.14
2019-04-06T06:39:50.231Z,990.11
2019-04-06T06:40:50.252Z,990.12
2019-04-06T06:41:50.273Z,990.18
2019-04-06T06:42:50.474Z,990.16
2019-04-06T06:43:50.311Z,990.14
2019-04-06T06:44:50.330Z,990.2
2019-04-06T06:45:50.350Z,990.2
2019-04-06T06:46:50.370Z,990.18
2019-04-06T06:47:50.391Z,990.18
2019-04-06T06:48:50.413Z,990.17
2019-04-06T06:49:50.429Z,990.21
2019-04-06T06:50:50.450Z,990.22
2019-04-06T06:51:50.558Z,990.2
2019-04-06T06:52:50.492Z,990.18
2019-04-06T06:53:50.549Z,990.18
2019-04-06T06:54:50.545Z,990.22
2019-04-06T06:55:53.005Z,990.19
2019-04-06T06:56:50.570Z,990.18
2019-04-06T06:57:50.593Z,990.17
2019-04-06T06:58:50.609Z,990.21
2019-04-06T06:59:50.632Z,990.22
2019-04-06T07:00:50.648Z,990.18
2019-04-06T07:01:50.672Z,990.22
2019-04-06T07:02:50.688Z,990.22
2019-04-06T07:03:50.843Z,990.21
2019-04-06T07:04:50.730Z,990.18
2019-04-06T07:05:50.801Z,990.19
2019-04-06T07:06:50.770Z,990.24
2019-04-06T07:07:50.789Z,990.21
2019-04-06T07:08:50.820Z,990.19
2019-04-06T07:09:50.829Z,990.2
2019-04-06T07:10:50.850Z,990.19
2019-04-06T07:11:50.869Z,990.2
2019-04-06T07:12:50.889Z,990.2
2019-04-06T07:13:50.911Z,990.18
2019-04-06T07:14:50.929Z,990.15
2019-04-06T07:15:50.951Z,990.18
2019-04-06T07:16:50.975Z,990.21
2019-04-06T07:17:51.155Z,990.16
2019-04-06T07:18:51.009Z,990.16
2019-04-06T07:19:51.029Z,990.22
2019-04-06T07:20:51.050Z,990.23
2019-04-06T07:21:51.165Z,990.2
2019-04-06T07:22:51.091Z,990.22
2019-04-06T07:23:51.112Z,990.25
2019-04-06T07:24:51.130Z,990.28
2019-04-06T07:25:57.150Z,990.25
2019-04-06T07:26:51.172Z,990.25
2019-04-06T07:27:51.193Z,990.24
2019-04-06T07:28:51.211Z,990.28
2019-04-06T07:29:51.261Z,990.32
2019-04-06T07:30:51.294Z,990.26
2019-04-06T07:31:51.272Z,990.28
2019-04-06T07:32:51.419Z,990.31
2019-04-06T07:33:51.312Z,990.28
2019-04-06T07:34:51.503Z,990.34
2019-04-06T07:35:51.353Z,990.31
2019-04-06T07:36:51.372Z,990.29
2019-04-06T07:37:51.393Z,990.3
2019-04-06T07:38:51.547Z,990.25
2019-04-06T07:39:51.435Z,990.27
2019-04-06T07:40:51.456Z,990.27
2019-04-06T07:41:51.589Z,990.24
2019-04-06T07:42:51.494Z,990.23
2019-04-06T07:43:51.514Z,990.17
2019-04-06T07:44:51.533Z,990.15
2019-04-06T07:45:51.554Z,990.17
2019-04-06T07:46:51.710Z,990.17
2019-04-06T07:47:51.594Z,990.18
2019-04-06T07:48:51.615Z,990.14
2019-04-06T07:49:51.637Z,990.14
2019-04-06T07:50:51.656Z,990.14
2019-04-06T07:51:51.676Z,990.08
2019-04-06T07:52:51.775Z,990.14
2019-04-06T07:53:51.717Z,990.15
2019-04-06T07:54:51.738Z,990.07
2019-04-06T07:55:51.791Z,990.08
2019-04-06T07:56:51.781Z,990.11
2019-04-06T07:57:51.800Z,990.07
2019-04-06T07:58:51.831Z,990.06
2019-04-06T07:59:51.840Z,990.1
2019-04-06T08:00:51.860Z,990.07
2019-04-06T08:01:51.884Z,990.05
2019-04-06T08:02:51.908Z,990.11
2019-04-06T08:03:51.922Z,990.12
2019-04-06T08:04:51.942Z,990.12
2019-04-06T08:05:52.195Z,990.09
2019-04-06T08:06:51.987Z,990.11
2019-04-06T08:07:52.009Z,990.09
2019-04-06T08:08:52.226Z,990.11
2019-04-06T08:09:52.044Z,990.09
2019-04-06T08:10:52.064Z,990.06
2019-04-06T08:11:52.133Z,990.06
2019-04-06T08:12:52.107Z,990.07
2019-04-06T08:13:52.125Z,990.04
2019-04-06T08:14:52.147Z,990.05
2019-04-06T08:15:52.167Z,990.03
2019-04-06T08:16:52.193Z,990.04
2019-04-06T08:17:52.209Z,990.03
2019-04-06T08:18:52.394Z,990.03
2019-04-06T08:19:52.251Z,990.06
2019-04-06T08:20:52.271Z,990.07
2019-04-06T08:21:52.524Z,990.05
2019-04-06T08:22:52.311Z,990.11
2019-04-06T08:23:52.333Z,990.05
2019-04-06T08:24:52.566Z,990.07
2019-04-06T08:25:52.377Z,990.1
2019-04-06T08:26:52.396Z,990.11
2019-04-06T08:27:52.417Z,990.08
2019-04-06T08:29:00.075Z,990.12
2019-04-06T08:29:52.458Z,990.13
2019-04-06T08:30:52.479Z,990.12
2019-04-06T08:31:52.499Z,990.12
2019-04-06T08:32:52.520Z,990.11
2019-04-06T08:33:52.771Z,990.15
2019-04-06T08:34:52.562Z,990.09
2019-04-06T08:35:52.582Z,990.12
2019-04-06T08:36:52.604Z,990.14
2019-04-06T08:37:52.625Z,990.1
2019-04-06T08:38:52.646Z,990.12
2019-04-06T08:39:52.685Z,990.15
2019-04-06T08:40:52.695Z,990.14
2019-04-06T08:41:52.710Z,990.12
2019-04-06T08:42:52.730Z,990.14
2019-04-06T08:43:52.751Z,990.11
2019-04-06T08:44:52.770Z,990.1
2019-04-06T08:45:52.800Z,990.08
2019-04-06T08:46:52.813Z,990.13
2019-04-06T08:47:52.835Z,990.14
2019-04-06T08:48:52.857Z,990.17
2019-04-06T08:49:52.875Z,990.11
2019-04-06T08:50:52.897Z,990.09
2019-04-06T08:51:52.918Z,990.12
2019-04-06T08:52:52.947Z,990.1
2019-04-06T08:53:53.179Z,990.08
2019-04-06T08:54:52.984Z,990.14
2019-04-06T08:55:53.161Z,990.08
2019-04-06T08:56:53.065Z,990.13
2019-04-06T08:57:53.044Z,990.07
2019-04-06T08:58:53.066Z,990.11
2019-04-06T08:59:53.092Z,990.08
2019-04-06T09:00:53.282Z,990.1
2019-04-06T09:01:53.130Z,990.07
2019-04-06T09:02:53.151Z,990.1
2019-04-06T09:03:53.171Z,990.06
2019-04-06T09:04:53.196Z,990.09
2019-04-06T09:05:53.394Z,990.07
2019-04-06T09:06:53.238Z,990.05
2019-04-06T09:07:53.455Z,990.04
2019-04-06T09:08:53.279Z,990.05
2019-04-06T09:09:53.298Z,990.03
2019-04-06T09:10:53.319Z,990.04
2019-04-06T09:11:53.339Z,990.05
2019-04-06T09:12:53.423Z,990.04
2019-04-06T09:13:53.433Z,990.04
2019-04-06T09:14:53.583Z,990.07
2019-04-06T09:15:53.425Z,990.07
2019-04-06T09:16:53.446Z,990.06
2019-04-06T09:17:53.471Z,990.09
2019-04-06T09:18:53.490Z,990.04
2019-04-06T09:19:53.509Z,990.09
2019-04-06T09:20:53.530Z,990.07
2019-04-06T09:21:53.552Z,990.05
2019-04-06T09:22:53.581Z,990.05
2019-04-06T09:23:53.593Z,990.05
2019-04-06T09:24:53.616Z,990.09
2019-04-06T09:25:53.837Z,990.11
2019-04-06T09:26:53.718Z,990.07
2019-04-06T09:27:53.679Z,990.06
2019-04-06T09:28:53.923Z,990.02
2019-04-06T09:29:53.721Z,989.95
2019-04-06T09:30:54.173Z,989.95
2019-04-06T09:31:53.921Z,989.98
2019-04-06T09:32:53.785Z,989.99
2019-04-06T09:33:53.807Z,990.04
2019-04-06T09:34:54.069Z,990.09
2019-04-06T09:35:53.848Z,990.07
2019-04-06T09:36:53.869Z,990.12
2019-04-06T09:37:53.890Z,990.07
2019-04-06T09:38:53.912Z,990.07
2019-04-06T09:39:53.932Z,990.04
2019-04-06T09:40:53.972Z,990.06
2019-04-06T09:41:53.976Z,990.07
2019-04-06T09:42:53.996Z,990.09
2019-04-06T09:43:54.019Z,990.09
2019-04-06T09:44:54.038Z,990.09
2019-04-06T09:45:54.059Z,990.02
2019-04-06T09:46:54.082Z,990.02
2019-04-06T09:47:54.104Z,990.05
2019-04-06T09:48:54.124Z,989.99
2019-04-06T09:49:54.146Z,990.04
2019-04-06T09:50:54.166Z,990.05
2019-04-06T09:51:54.188Z,990.04
2019-04-06T09:52:54.422Z,990.1
2019-04-06T09:54:04.944Z,990.09
2019-04-06T09:54:54.251Z,990.1
2019-04-06T09:55:54.274Z,990.09
2019-04-06T09:56:54.294Z,990.06
2019-04-06T09:57:54.433Z,990.08
2019-04-06T09:58:54.336Z,990.09
2019-04-06T09:59:54.357Z,990.09
2019-04-06T10:00:54.379Z,990.06
2019-04-06T10:01:54.405Z,990.06
2019-04-06T10:02:54.480Z,990.08
2019-04-06T10:03:54.443Z,990.09
2019-04-06T10:04:54.465Z,990.14
2019-04-06T10:05:54.486Z,990.09
2019-04-06T10:06:54.508Z,990.09
2019-04-06T10:07:54.529Z,990.11
2019-04-06T10:08:54.549Z,990.04
2019-04-06T10:09:54.780Z,990.03
2019-04-06T10:10:54.592Z,990.03
2019-04-06T10:11:54.774Z,990.03
2019-04-06T10:12:54.635Z,989.95
2019-04-06T10:13:54.658Z,989.95
2019-04-06T10:14:54.956Z,989.93
2019-04-06T10:15:54.781Z,989.93
2019-04-06T10:16:54.733Z,989.91
2019-04-06T10:17:54.805Z,989.87
2019-04-06T10:18:54.765Z,989.84
2019-04-06T10:19:55.372Z,989.8
2019-04-06T10:20:54.807Z,989.83
2019-04-06T10:21:54.830Z,989.85
2019-04-06T10:22:54.851Z,989.9
2019-04-06T10:23:54.872Z,989.84
2019-04-06T10:24:54.893Z,989.84
2019-04-06T10:25:54.924Z,989.88
2019-04-06T10:26:54.946Z,989.85
2019-04-06T10:27:54.959Z,989.85
2019-04-06T10:28:54.980Z,989.79
2019-04-06T10:29:55.000Z,989.81
2019-04-06T10:30:55.022Z,989.8
2019-04-06T10:31:55.043Z,989.76
2019-04-06T10:32:55.066Z,989.78
2019-04-06T10:33:55.086Z,989.81
2019-04-06T10:34:55.108Z,989.8
2019-04-06T10:35:55.129Z,989.8
2019-04-06T10:36:55.153Z,989.79
2019-04-06T10:37:55.171Z,989.84
2019-04-06T10:38:55.543Z,989.77
2019-04-06T10:39:55.214Z,989.77
2019-04-06T10:40:55.523Z,989.73
2019-04-06T10:41:55.262Z,989.69
2019-04-06T10:42:55.280Z,989.77
2019-04-06T10:43:55.301Z,989.78
2019-04-06T10:44:55.323Z,989.72
2019-04-06T10:45:55.453Z,989.76
2019-04-06T10:46:55.365Z,989.72
2019-04-06T10:47:55.389Z,989.75
2019-04-06T10:48:55.415Z,989.73
2019-04-06T10:49:55.431Z,989.73
2019-04-06T10:50:55.454Z,989.7
2019-04-06T10:51:55.474Z,989.69
2019-04-06T10:52:55.495Z,989.69
2019-04-06T10:53:55.518Z,989.65
2019-04-06T10:54:55.701Z,989.73
2019-04-06T10:55:55.826Z,989.71
2019-04-06T10:56:55.756Z,989.66
2019-04-06T10:57:55.602Z,989.72
2019-04-06T10:58:55.666Z,989.64
2019-04-06T11:00:01.339Z,989.63
2019-04-06T11:00:55.674Z,989.61
2019-04-06T11:01:55.687Z,989.62
2019-04-06T11:02:55.892Z,989.58
2019-04-06T11:03:55.730Z,989.59
2019-04-06T11:04:55.753Z,989.57
2019-04-06T11:05:55.772Z,989.59
2019-04-06T11:06:55.795Z,989.63
2019-04-06T11:07:55.943Z,989.6
2019-04-06T11:08:55.836Z,989.57
2019-04-06T11:09:55.858Z,989.55
2019-04-06T11:10:55.881Z,989.53
2019-04-06T11:11:56.192Z,989.55
2019-04-06T11:12:56.006Z,989.53
2019-04-06T11:13:55.945Z,989.56
2019-04-06T11:14:55.966Z,989.56
2019-04-06T11:15:55.988Z,989.51
2019-04-06T11:16:56.010Z,989.54
2019-04-06T11:17:56.235Z,989.53
2019-04-06T11:18:56.053Z,989.51
2019-04-06T11:19:56.073Z,989.48
2019-04-06T11:20:56.095Z,989.5
2019-04-06T11:21:56.116Z,989.48
2019-04-06T11:22:56.145Z,989.48
2019-04-06T11:23:56.159Z,989.47
2019-04-06T11:24:56.263Z,989.44
2019-04-06T11:25:56.203Z,989.43
2019-04-06T11:26:56.224Z,989.41
2019-04-06T11:27:56.245Z,989.47
2019-04-06T11:28:56.267Z,989.42
2019-04-06T11:29:56.293Z,989.41
2019-04-06T11:30:56.310Z,989.46
2019-04-06T11:31:56.333Z,989.43
2019-04-06T11:32:56.354Z,989.46
2019-04-06T11:33:56.377Z,989.48
2019-04-06T11:34:56.396Z,989.45
2019-04-06T11:35:56.417Z,989.37
2019-04-06T11:36:56.743Z,989.36
2019-04-06T11:37:56.563Z,989.33
2019-04-06T11:38:56.482Z,989.39
2019-04-06T11:39:56.509Z,989.35
2019-04-06T11:40:56.526Z,989.38
2019-04-06T11:41:56.546Z,989.36
2019-04-06T11:42:56.572Z,989.37
2019-04-06T11:43:56.591Z,989.37
2019-04-06T11:44:56.611Z,989.3
2019-04-06T11:45:56.633Z,989.31
2019-04-06T11:46:56.654Z,989.28
2019-04-06T11:47:56.678Z,989.31
2019-04-06T11:48:56.699Z,989.31
2019-04-06T11:49:56.721Z,989.34
2019-04-06T11:50:56.741Z,989.31
2019-04-06T11:51:56.765Z,989.29
2019-04-06T11:52:56.785Z,989.33
2019-04-06T11:53:56.807Z,989.32
2019-04-06T11:54:56.945Z,989.31
2019-04-06T11:55:56.960Z,989.31
2019-04-06T11:56:56.879Z,989.31
2019-04-06T11:57:56.893Z,989.31
2019-04-06T11:58:57.094Z,989.33
2019-04-06T11:59:56.936Z,989.3
2019-04-06T12:00:57.104Z,989.34
2019-04-06T12:01:57.221Z,989.29
2019-04-06T12:02:57.003Z,989.31
2019-04-06T12:03:57.023Z,989.32
2019-04-06T12:04:57.045Z,989.3
2019-04-06T12:05:57.066Z,989.27
2019-04-06T12:06:57.089Z,989.22
2019-04-06T12:07:57.211Z,989.23
2019-04-06T12:08:57.333Z,989.24
2019-04-06T12:09:57.153Z,989.24
2019-04-06T12:10:57.242Z,989.23
2019-04-06T12:11:57.195Z,989.25
2019-04-06T12:12:57.221Z,989.25
2019-04-06T12:13:57.283Z,989.19
2019-04-06T12:14:57.259Z,989.21
2019-04-06T12:15:57.283Z,989.17
2019-04-06T12:16:57.353Z,989.17
2019-04-06T12:17:57.663Z,989.18
2019-04-06T12:18:57.348Z,989.17
2019-04-06T12:19:57.401Z,989.16
2019-04-06T12:20:57.392Z,989.12
2019-04-06T12:21:57.416Z,989.13
2019-04-06T12:22:57.618Z,989.14
2019-04-06T12:23:57.456Z,989.11
2019-04-06T12:24:58.072Z,989.09
2019-04-06T12:25:57.500Z,989.15
2019-04-06T12:26:57.522Z,989.11
2019-04-06T12:27:57.677Z,989.11
2019-04-06T12:28:57.717Z,989.14
2019-04-06T12:29:57.610Z,989.11
2019-04-06T12:30:57.610Z,989.1